sensor_id;sensor_type;location;lat;lon;timestamp;P1;durP1;ratioP1;P2;durP2;ratioP2
10934;SDS011;5520;45.752;4.874;2023-03-08T00:01:53;32.80;;;20.37;;
10934;SDS011;5520;45.752;4.874;2023-03-08T00:04:21;35.43;;;20.70;;
10934;SDS011;5520;45.752;4.874;2023-03-08T00:06:50;36.53;;;19.93;;
10934;SDS011;5520;45.752;4.874;2023-03-08T00:09:18;37.37;;;21.20;;
10934;SDS011;5520;45.752;4.874;2023-03-08T00:11:46;42.73;;;22.87;;
10934;SDS011;5520;45.752;4.874;2023-03-08T00:14:14;40.50;;;22.10;;
10934;SDS011;5520;45.752;4.874;2023-03-08T00:16:43;41.17;;;21.93;;
10934;SDS011;5520;45.752;4.874;2023-03-08T00:19:11;45.47;;;23.00;;
10934;SDS011;5520;45.752;4.874;2023-03-08T00:21:39;41.10;;;21.80;;
10934;SDS011;5520;45.752;4.874;2023-03-08T00:24:08;44.90;;;23.47;;
10934;SDS011;5520;45.752;4.874;2023-03-08T00:26:37;48.13;;;24.00;;
10934;SDS011;5520;45.752;4.874;2023-03-08T00:29:05;44.93;;;23.43;;
10934;SDS011;5520;45.752;4.874;2023-03-08T00:31:33;51.83;;;25.27;;
10934;SDS011;5520;45.752;4.874;2023-03-08T00:34:01;53.53;;;24.83;;
10934;SDS011;5520;45.752;4.874;2023-03-08T00:36:29;53.30;;;24.93;;
10934;SDS011;5520;45.752;4.874;2023-03-08T00:38:57;53.80;;;25.00;;
10934;SDS011;5520;45.752;4.874;2023-03-08T00:41:26;48.10;;;23.47;;
10934;SDS011;5520;45.752;4.874;2023-03-08T00:43:57;46.33;;;24.67;;
10934;SDS011;5520;45.752;4.874;2023-03-08T00:46:25;47.33;;;24.30;;
10934;SDS011;5520;45.752;4.874;2023-03-08T00:48:53;45.80;;;23.73;;
10934;SDS011;5520;45.752;4.874;2023-03-08T00:51:21;55.43;;;25.53;;
10934;SDS011;5520;45.752;4.874;2023-03-08T00:53:49;45.47;;;23.03;;
10934;SDS011;5520;45.752;4.874;2023-03-08T00:56:17;51.37;;;24.83;;
10934;SDS011;5520;45.752;4.874;2023-03-08T00:58:46;51.03;;;25.17;;
10934;SDS011;5520;45.752;4.874;2023-03-08T01:01:15;48.27;;;23.13;;
10934;SDS011;5520;45.752;4.874;2023-03-08T01:03:43;50.10;;;26.47;;
10934;SDS011;5520;45.752;4.874;2023-03-08T01:06:12;42.73;;;24.07;;
10934;SDS011;5520;45.752;4.874;2023-03-08T01:08:40;44.50;;;24.93;;
10934;SDS011;5520;45.752;4.874;2023-03-08T01:11:13;46.87;;;23.70;;
10934;SDS011;5520;45.752;4.874;2023-03-08T01:13:41;48.73;;;23.27;;
10934;SDS011;5520;45.752;4.874;2023-03-08T01:16:15;48.90;;;25.33;;
10934;SDS011;5520;45.752;4.874;2023-03-08T01:18:43;47.67;;;24.23;;
10934;SDS011;5520;45.752;4.874;2023-03-08T01:21:11;50.33;;;25.33;;
10934;SDS011;5520;45.752;4.874;2023-03-08T01:23:39;53.70;;;25.23;;
10934;SDS011;5520;45.752;4.874;2023-03-08T01:26:09;48.87;;;23.40;;
10934;SDS011;5520;45.752;4.874;2023-03-08T01:28:38;47.63;;;22.83;;
10934;SDS011;5520;45.752;4.874;2023-03-08T01:31:06;42.60;;;22.07;;
10934;SDS011;5520;45.752;4.874;2023-03-08T01:33:36;46.87;;;22.67;;
10934;SDS011;5520;45.752;4.874;2023-03-08T01:36:04;44.10;;;23.07;;
10934;SDS011;5520;45.752;4.874;2023-03-08T01:38:32;47.67;;;21.97;;
10934;SDS011;5520;45.752;4.874;2023-03-08T01:41:01;41.87;;;21.33;;
10934;SDS011;5520;45.752;4.874;2023-03-08T01:43:30;46.07;;;22.70;;
10934;SDS011;5520;45.752;4.874;2023-03-08T01:46:02;38.50;;;21.00;;
10934;SDS011;5520;45.752;4.874;2023-03-08T01:48:31;42.67;;;22.37;;
10934;SDS011;5520;45.752;4.874;2023-03-08T01:51:01;48.17;;;22.13;;
10934;SDS011;5520;45.752;4.874;2023-03-08T01:53:30;43.63;;;21.60;;
10934;SDS011;5520;45.752;4.874;2023-03-08T01:55:58;46.20;;;21.37;;
10934;SDS011;5520;45.752;4.874;2023-03-08T01:58:26;38.80;;;20.40;;
10934;SDS011;5520;45.752;4.874;2023-03-08T02:00:54;38.57;;;18.33;;
10934;SDS011;5520;45.752;4.874;2023-03-08T02:03:22;33.43;;;18.40;;
10934;SDS011;5520;45.752;4.874;2023-03-08T02:05:50;34.80;;;18.17;;
10934;SDS011;5520;45.752;4.874;2023-03-08T02:08:19;33.93;;;17.60;;
10934;SDS011;5520;45.752;4.874;2023-03-08T02:10:47;36.47;;;18.37;;
10934;SDS011;5520;45.752;4.874;2023-03-08T02:13:16;37.07;;;19.43;;
10934;SDS011;5520;45.752;4.874;2023-03-08T02:15:46;36.50;;;19.17;;
10934;SDS011;5520;45.752;4.874;2023-03-08T02:18:15;33.77;;;17.40;;
10934;SDS011;5520;45.752;4.874;2023-03-08T02:20:43;31.27;;;17.40;;
10934;SDS011;5520;45.752;4.874;2023-03-08T02:23:13;36.63;;;17.67;;
10934;SDS011;5520;45.752;4.874;2023-03-08T02:25:41;33.27;;;17.30;;
10934;SDS011;5520;45.752;4.874;2023-03-08T02:28:16;35.07;;;17.90;;
10934;SDS011;5520;45.752;4.874;2023-03-08T02:30:44;34.50;;;18.17;;
10934;SDS011;5520;45.752;4.874;2023-03-08T02:33:12;33.23;;;16.93;;
10934;SDS011;5520;45.752;4.874;2023-03-08T02:35:40;33.57;;;16.70;;
10934;SDS011;5520;45.752;4.874;2023-03-08T02:38:09;29.17;;;14.93;;
10934;SDS011;5520;45.752;4.874;2023-03-08T02:40:39;26.70;;;14.10;;
10934;SDS011;5520;45.752;4.874;2023-03-08T02:43:07;26.13;;;13.43;;
10934;SDS011;5520;45.752;4.874;2023-03-08T02:45:35;25.33;;;13.97;;
10934;SDS011;5520;45.752;4.874;2023-03-08T02:48:03;25.80;;;14.83;;
10934;SDS011;5520;45.752;4.874;2023-03-08T02:50:32;23.83;;;13.70;;
10934;SDS011;5520;45.752;4.874;2023-03-08T02:53:02;27.40;;;13.97;;
10934;SDS011;5520;45.752;4.874;2023-03-08T02:55:30;25.10;;;13.30;;
10934;SDS011;5520;45.752;4.874;2023-03-08T02:58:01;22.63;;;13.67;;
10934;SDS011;5520;45.752;4.874;2023-03-08T03:00:29;22.27;;;12.40;;
10934;SDS011;5520;45.752;4.874;2023-03-08T03:02:57;20.07;;;12.80;;
10934;SDS011;5520;45.752;4.874;2023-03-08T03:05:25;20.30;;;12.90;;
10934;SDS011;5520;45.752;4.874;2023-03-08T03:07:53;21.47;;;12.53;;
10934;SDS011;5520;45.752;4.874;2023-03-08T03:10:24;19.70;;;12.53;;
10934;SDS011;5520;45.752;4.874;2023-03-08T03:12:52;21.23;;;13.30;;
10934;SDS011;5520;45.752;4.874;2023-03-08T03:15:21;20.00;;;12.07;;
10934;SDS011;5520;45.752;4.874;2023-03-08T03:17:49;18.27;;;12.13;;
10934;SDS011;5520;45.752;4.874;2023-03-08T03:20:17;21.27;;;12.23;;
10934;SDS011;5520;45.752;4.874;2023-03-08T03:22:45;17.03;;;11.50;;
10934;SDS011;5520;45.752;4.874;2023-03-08T03:25:13;19.13;;;11.40;;
10934;SDS011;5520;45.752;4.874;2023-03-08T03:27:41;19.07;;;11.50;;
10934;SDS011;5520;45.752;4.874;2023-03-08T03:30:09;15.83;;;10.43;;
10934;SDS011;5520;45.752;4.874;2023-03-08T03:32:39;17.90;;;11.23;;
10934;SDS011;5520;45.752;4.874;2023-03-08T03:35:07;16.97;;;11.37;;
10934;SDS011;5520;45.752;4.874;2023-03-08T03:37:35;17.03;;;10.53;;
10934;SDS011;5520;45.752;4.874;2023-03-08T03:40:04;18.77;;;11.03;;
10934;SDS011;5520;45.752;4.874;2023-03-08T03:42:32;15.60;;;10.43;;
10934;SDS011;5520;45.752;4.874;2023-03-08T03:45:00;15.33;;;10.73;;
10934;SDS011;5520;45.752;4.874;2023-03-08T03:47:30;16.63;;;10.17;;
10934;SDS011;5520;45.752;4.874;2023-03-08T03:50:00;18.07;;;10.27;;
10934;SDS011;5520;45.752;4.874;2023-03-08T03:52:28;18.87;;;10.70;;
10934;SDS011;5520;45.752;4.874;2023-03-08T03:54:56;21.57;;;10.67;;
10934;SDS011;5520;45.752;4.874;2023-03-08T03:57:24;19.13;;;11.50;;
10934;SDS011;5520;45.752;4.874;2023-03-08T03:59:52;15.87;;;10.63;;
10934;SDS011;5520;45.752;4.874;2023-03-08T04:02:19;15.07;;;10.60;;
10934;SDS011;5520;45.752;4.874;2023-03-08T04:04:48;17.60;;;11.33;;
10934;SDS011;5520;45.752;4.874;2023-03-08T04:07:17;14.63;;;10.10;;
10934;SDS011;5520;45.752;4.874;2023-03-08T04:09:45;16.23;;;10.80;;
10934;SDS011;5520;45.752;4.874;2023-03-08T04:12:13;16.97;;;10.80;;
10934;SDS011;5520;45.752;4.874;2023-03-08T04:14:41;14.93;;;10.43;;
10934;SDS011;5520;45.752;4.874;2023-03-08T04:17:09;15.77;;;10.10;;
10934;SDS011;5520;45.752;4.874;2023-03-08T04:19:38;16.57;;;10.37;;
10934;SDS011;5520;45.752;4.874;2023-03-08T04:22:05;15.10;;;8.53;;
10934;SDS011;5520;45.752;4.874;2023-03-08T04:24:35;12.13;;;7.97;;
10934;SDS011;5520;45.752;4.874;2023-03-08T04:27:03;13.60;;;8.23;;
10934;SDS011;5520;45.752;4.874;2023-03-08T04:29:31;12.67;;;8.47;;
10934;SDS011;5520;45.752;4.874;2023-03-08T04:31:59;11.20;;;7.50;;
10934;SDS011;5520;45.752;4.874;2023-03-08T04:34:27;11.63;;;7.90;;
10934;SDS011;5520;45.752;4.874;2023-03-08T04:36:57;12.67;;;7.37;;
10934;SDS011;5520;45.752;4.874;2023-03-08T04:39:25;11.50;;;8.23;;
10934;SDS011;5520;45.752;4.874;2023-03-08T04:41:54;12.70;;;7.57;;
10934;SDS011;5520;45.752;4.874;2023-03-08T04:44:22;10.47;;;7.80;;
10934;SDS011;5520;45.752;4.874;2023-03-08T04:46:50;11.83;;;7.00;;
10934;SDS011;5520;45.752;4.874;2023-03-08T04:49:18;11.87;;;7.67;;
10934;SDS011;5520;45.752;4.874;2023-03-08T04:51:46;11.87;;;7.87;;
10934;SDS011;5520;45.752;4.874;2023-03-08T04:54:14;11.27;;;7.30;;
10934;SDS011;5520;45.752;4.874;2023-03-08T04:56:42;11.17;;;6.83;;
10934;SDS011;5520;45.752;4.874;2023-03-08T04:59:11;10.37;;;6.83;;
10934;SDS011;5520;45.752;4.874;2023-03-08T05:01:39;11.93;;;7.47;;
10934;SDS011;5520;45.752;4.874;2023-03-08T05:04:08;15.33;;;7.17;;
10934;SDS011;5520;45.752;4.874;2023-03-08T05:06:36;11.17;;;7.43;;
10934;SDS011;5520;45.752;4.874;2023-03-08T05:09:04;11.47;;;7.00;;
10934;SDS011;5520;45.752;4.874;2023-03-08T05:11:32;12.60;;;7.70;;
10934;SDS011;5520;45.752;4.874;2023-03-08T05:14:00;15.40;;;7.60;;
10934;SDS011;5520;45.752;4.874;2023-03-08T05:16:32;12.37;;;8.43;;
10934;SDS011;5520;45.752;4.874;2023-03-08T05:19:00;10.60;;;7.37;;
10934;SDS011;5520;45.752;4.874;2023-03-08T05:21:28;11.73;;;7.17;;
10934;SDS011;5520;45.752;4.874;2023-03-08T05:23:57;12.90;;;8.37;;
10934;SDS011;5520;45.752;4.874;2023-03-08T05:26:25;10.00;;;8.17;;
10934;SDS011;5520;45.752;4.874;2023-03-08T05:28:54;11.23;;;8.13;;
10934;SDS011;5520;45.752;4.874;2023-03-08T05:31:21;15.20;;;8.03;;
10934;SDS011;5520;45.752;4.874;2023-03-08T05:33:51;12.67;;;7.57;;
10934;SDS011;5520;45.752;4.874;2023-03-08T05:36:19;13.40;;;8.10;;
10934;SDS011;5520;45.752;4.874;2023-03-08T05:38:47;11.43;;;7.27;;
10934;SDS011;5520;45.752;4.874;2023-03-08T05:41:19;10.57;;;7.40;;
10934;SDS011;5520;45.752;4.874;2023-03-08T05:43:47;11.70;;;7.07;;
10934;SDS011;5520;45.752;4.874;2023-03-08T05:46:15;10.70;;;7.27;;
10934;SDS011;5520;45.752;4.874;2023-03-08T05:48:44;12.97;;;7.50;;
10934;SDS011;5520;45.752;4.874;2023-03-08T05:51:14;14.07;;;8.53;;
10934;SDS011;5520;45.752;4.874;2023-03-08T05:53:43;14.17;;;8.13;;
10934;SDS011;5520;45.752;4.874;2023-03-08T05:56:12;10.47;;;7.20;;
10934;SDS011;5520;45.752;4.874;2023-03-08T05:58:40;9.90;;;6.87;;
10934;SDS011;5520;45.752;4.874;2023-03-08T06:01:10;12.40;;;7.40;;
10934;SDS011;5520;45.752;4.874;2023-03-08T06:03:39;11.87;;;8.20;;
10934;SDS011;5520;45.752;4.874;2023-03-08T06:06:07;12.13;;;7.27;;
10934;SDS011;5520;45.752;4.874;2023-03-08T06:08:36;12.10;;;7.37;;
10934;SDS011;5520;45.752;4.874;2023-03-08T06:11:04;8.90;;;6.67;;
10934;SDS011;5520;45.752;4.874;2023-03-08T06:13:32;10.40;;;6.60;;
10934;SDS011;5520;45.752;4.874;2023-03-08T06:16:01;13.30;;;7.47;;
10934;SDS011;5520;45.752;4.874;2023-03-08T06:18:29;8.63;;;6.20;;
10934;SDS011;5520;45.752;4.874;2023-03-08T06:20:57;10.97;;;6.77;;
10934;SDS011;5520;45.752;4.874;2023-03-08T06:23:25;13.30;;;7.23;;
10934;SDS011;5520;45.752;4.874;2023-03-08T06:25:55;10.33;;;6.80;;
10934;SDS011;5520;45.752;4.874;2023-03-08T06:28:23;12.50;;;7.33;;
10934;SDS011;5520;45.752;4.874;2023-03-08T06:30:52;9.60;;;6.70;;
10934;SDS011;5520;45.752;4.874;2023-03-08T06:33:21;13.40;;;7.23;;
10934;SDS011;5520;45.752;4.874;2023-03-08T06:35:56;9.67;;;6.77;;
10934;SDS011;5520;45.752;4.874;2023-03-08T06:38:25;10.73;;;7.27;;
10934;SDS011;5520;45.752;4.874;2023-03-08T06:40:57;8.67;;;6.80;;
10934;SDS011;5520;45.752;4.874;2023-03-08T06:43:26;12.60;;;6.97;;
10934;SDS011;5520;45.752;4.874;2023-03-08T06:45:56;10.70;;;6.93;;
10934;SDS011;5520;45.752;4.874;2023-03-08T06:48:24;9.97;;;6.87;;
10934;SDS011;5520;45.752;4.874;2023-03-08T06:50:52;9.53;;;7.00;;
10934;SDS011;5520;45.752;4.874;2023-03-08T06:53:20;10.30;;;6.17;;
10934;SDS011;5520;45.752;4.874;2023-03-08T06:55:48;10.20;;;6.20;;
10934;SDS011;5520;45.752;4.874;2023-03-08T06:58:17;9.17;;;6.73;;
10934;SDS011;5520;45.752;4.874;2023-03-08T07:00:45;9.53;;;6.17;;
10934;SDS011;5520;45.752;4.874;2023-03-08T07:03:13;8.57;;;5.97;;
10934;SDS011;5520;45.752;4.874;2023-03-08T07:05:41;8.60;;;5.80;;
10934;SDS011;5520;45.752;4.874;2023-03-08T07:08:09;9.00;;;5.67;;
10934;SDS011;5520;45.752;4.874;2023-03-08T07:10:37;7.30;;;5.73;;
10934;SDS011;5520;45.752;4.874;2023-03-08T07:13:06;7.77;;;6.20;;
10934;SDS011;5520;45.752;4.874;2023-03-08T07:15:37;8.03;;;5.77;;
10934;SDS011;5520;45.752;4.874;2023-03-08T07:18:05;9.47;;;6.17;;
10934;SDS011;5520;45.752;4.874;2023-03-08T07:20:33;8.90;;;5.87;;
10934;SDS011;5520;45.752;4.874;2023-03-08T07:23:01;7.67;;;5.97;;
10934;SDS011;5520;45.752;4.874;2023-03-08T07:25:29;9.90;;;5.90;;
10934;SDS011;5520;45.752;4.874;2023-03-08T07:27:57;8.80;;;6.37;;
10934;SDS011;5520;45.752;4.874;2023-03-08T07:30:25;10.73;;;5.87;;
10934;SDS011;5520;45.752;4.874;2023-03-08T07:32:55;16.30;;;7.40;;
10934;SDS011;5520;45.752;4.874;2023-03-08T07:35:23;7.00;;;5.17;;
10934;SDS011;5520;45.752;4.874;2023-03-08T07:37:51;9.73;;;5.90;;
10934;SDS011;5520;45.752;4.874;2023-03-08T07:40:19;7.63;;;5.47;;
10934;SDS011;5520;45.752;4.874;2023-03-08T07:42:47;10.17;;;5.57;;
10934;SDS011;5520;45.752;4.874;2023-03-08T07:45:15;11.07;;;5.90;;
10934;SDS011;5520;45.752;4.874;2023-03-08T07:47:44;6.97;;;5.17;;
10934;SDS011;5520;45.752;4.874;2023-03-08T07:50:13;8.30;;;5.50;;
10934;SDS011;5520;45.752;4.874;2023-03-08T07:52:41;48.80;;;12.10;;
10934;SDS011;5520;45.752;4.874;2023-03-08T07:55:09;39.33;;;12.53;;
10934;SDS011;5520;45.752;4.874;2023-03-08T07:57:38;6.80;;;5.60;;
10934;SDS011;5520;45.752;4.874;2023-03-08T08:00:06;57.87;;;13.97;;
10934;SDS011;5520;45.752;4.874;2023-03-08T08:02:35;30.90;;;9.17;;
10934;SDS011;5520;45.752;4.874;2023-03-08T08:05:03;8.87;;;5.37;;
10934;SDS011;5520;45.752;4.874;2023-03-08T08:07:33;9.27;;;5.37;;
10934;SDS011;5520;45.752;4.874;2023-03-08T08:10:01;7.10;;;5.13;;
10934;SDS011;5520;45.752;4.874;2023-03-08T08:12:32;5.93;;;4.77;;
10934;SDS011;5520;45.752;4.874;2023-03-08T08:15:00;7.23;;;4.43;;
10934;SDS011;5520;45.752;4.874;2023-03-08T08:17:29;7.33;;;4.40;;
10934;SDS011;5520;45.752;4.874;2023-03-08T08:19:57;7.83;;;4.80;;
10934;SDS011;5520;45.752;4.874;2023-03-08T08:22:25;5.50;;;4.67;;
10934;SDS011;5520;45.752;4.874;2023-03-08T08:24:55;7.63;;;4.43;;
10934;SDS011;5520;45.752;4.874;2023-03-08T08:27:23;6.17;;;4.33;;
10934;SDS011;5520;45.752;4.874;2023-03-08T08:29:51;5.03;;;3.90;;
10934;SDS011;5520;45.752;4.874;2023-03-08T08:32:18;5.67;;;3.80;;
10934;SDS011;5520;45.752;4.874;2023-03-08T08:34:47;4.37;;;3.90;;
10934;SDS011;5520;45.752;4.874;2023-03-08T08:37:15;4.03;;;3.23;;
10934;SDS011;5520;45.752;4.874;2023-03-08T08:39:43;5.13;;;3.60;;
10934;SDS011;5520;45.752;4.874;2023-03-08T08:42:12;5.07;;;3.33;;
10934;SDS011;5520;45.752;4.874;2023-03-08T08:44:40;6.10;;;3.87;;
10934;SDS011;5520;45.752;4.874;2023-03-08T08:47:08;6.07;;;3.80;;
10934;SDS011;5520;45.752;4.874;2023-03-08T08:49:36;7.40;;;3.93;;
10934;SDS011;5520;45.752;4.874;2023-03-08T08:52:04;4.37;;;3.23;;
10934;SDS011;5520;45.752;4.874;2023-03-08T08:54:32;5.20;;;3.50;;
10934;SDS011;5520;45.752;4.874;2023-03-08T08:57:00;4.93;;;3.67;;
10934;SDS011;5520;45.752;4.874;2023-03-08T08:59:33;3.93;;;3.13;;
10934;SDS011;5520;45.752;4.874;2023-03-08T09:02:01;5.17;;;3.53;;
10934;SDS011;5520;45.752;4.874;2023-03-08T09:04:32;3.40;;;3.10;;
10934;SDS011;5520;45.752;4.874;2023-03-08T09:07:00;6.23;;;3.33;;
10934;SDS011;5520;45.752;4.874;2023-03-08T09:09:29;4.20;;;3.17;;
10934;SDS011;5520;45.752;4.874;2023-03-08T09:11:58;3.57;;;2.57;;
10934;SDS011;5520;45.752;4.874;2023-03-08T09:14:26;3.47;;;2.70;;
10934;SDS011;5520;45.752;4.874;2023-03-08T09:16:55;2.93;;;2.63;;
10934;SDS011;5520;45.752;4.874;2023-03-08T09:19:24;3.00;;;2.70;;
10934;SDS011;5520;45.752;4.874;2023-03-08T09:21:52;5.00;;;3.40;;
10934;SDS011;5520;45.752;4.874;2023-03-08T09:24:20;6.07;;;2.97;;
10934;SDS011;5520;45.752;4.874;2023-03-08T09:26:48;5.37;;;3.20;;
10934;SDS011;5520;45.752;4.874;2023-03-08T09:29:16;6.23;;;2.87;;
10934;SDS011;5520;45.752;4.874;2023-03-08T09:31:44;3.77;;;2.73;;
10934;SDS011;5520;45.752;4.874;2023-03-08T09:34:13;2.80;;;2.40;;
10934;SDS011;5520;45.752;4.874;2023-03-08T09:36:41;3.43;;;2.77;;
10934;SDS011;5520;45.752;4.874;2023-03-08T09:39:10;2.63;;;2.23;;
10934;SDS011;5520;45.752;4.874;2023-03-08T09:41:44;3.20;;;2.43;;
10934;SDS011;5520;45.752;4.874;2023-03-08T09:44:16;4.00;;;2.50;;
10934;SDS011;5520;45.752;4.874;2023-03-08T09:46:47;3.57;;;2.37;;
10934;SDS011;5520;45.752;4.874;2023-03-08T09:49:18;2.57;;;2.23;;
10934;SDS011;5520;45.752;4.874;2023-03-08T09:51:49;2.70;;;2.50;;
10934;SDS011;5520;45.752;4.874;2023-03-08T09:54:20;2.77;;;2.23;;
10934;SDS011;5520;45.752;4.874;2023-03-08T09:56:50;3.47;;;2.53;;
10934;SDS011;5520;45.752;4.874;2023-03-08T09:59:20;4.93;;;2.77;;
10934;SDS011;5520;45.752;4.874;2023-03-08T10:01:52;2.23;;;2.03;;
10934;SDS011;5520;45.752;4.874;2023-03-08T10:04:33;6.93;;;2.80;;
10934;SDS011;5520;45.752;4.874;2023-03-08T10:07:07;2.47;;;2.27;;
10934;SDS011;5520;45.752;4.874;2023-03-08T10:09:39;2.50;;;2.23;;
10934;SDS011;5520;45.752;4.874;2023-03-08T10:12:13;4.87;;;2.20;;
10934;SDS011;5520;45.752;4.874;2023-03-08T10:14:44;2.37;;;2.10;;
10934;SDS011;5520;45.752;4.874;2023-03-08T10:17:16;1.80;;;1.67;;
10934;SDS011;5520;45.752;4.874;2023-03-08T10:19:47;2.47;;;1.90;;
10934;SDS011;5520;45.752;4.874;2023-03-08T10:22:19;3.37;;;1.70;;
10934;SDS011;5520;45.752;4.874;2023-03-08T10:24:51;1.60;;;1.50;;
10934;SDS011;5520;45.752;4.874;2023-03-08T10:27:21;2.03;;;1.60;;
10934;SDS011;5520;45.752;4.874;2023-03-08T10:29:50;1.93;;;1.73;;
10934;SDS011;5520;45.752;4.874;2023-03-08T10:32:18;1.53;;;1.40;;
10934;SDS011;5520;45.752;4.874;2023-03-08T10:34:48;1.40;;;1.30;;
10934;SDS011;5520;45.752;4.874;2023-03-08T10:37:18;1.93;;;1.57;;
10934;SDS011;5520;45.752;4.874;2023-03-08T10:39:48;2.27;;;1.50;;
10934;SDS011;5520;45.752;4.874;2023-03-08T10:42:19;3.87;;;1.50;;
10934;SDS011;5520;45.752;4.874;2023-03-08T10:44:52;2.03;;;1.77;;
10934;SDS011;5520;45.752;4.874;2023-03-08T10:47:21;3.40;;;1.67;;
10934;SDS011;5520;45.752;4.874;2023-03-08T10:50:02;2.33;;;1.30;;
10934;SDS011;5520;45.752;4.874;2023-03-08T10:52:30;3.33;;;1.70;;
10934;SDS011;5520;45.752;4.874;2023-03-08T10:54:59;2.30;;;1.40;;
10934;SDS011;5520;45.752;4.874;2023-03-08T10:57:27;1.60;;;1.43;;
10934;SDS011;5520;45.752;4.874;2023-03-08T10:59:57;1.30;;;1.20;;
10934;SDS011;5520;45.752;4.874;2023-03-08T11:02:26;1.73;;;1.40;;
10934;SDS011;5520;45.752;4.874;2023-03-08T11:04:55;1.60;;;1.50;;
10934;SDS011;5520;45.752;4.874;2023-03-08T11:07:25;1.63;;;1.53;;
10934;SDS011;5520;45.752;4.874;2023-03-08T11:10:05;3.40;;;1.87;;
10934;SDS011;5520;45.752;4.874;2023-03-08T11:12:41;2.13;;;1.50;;
10934;SDS011;5520;45.752;4.874;2023-03-08T11:15:12;2.13;;;1.40;;
10934;SDS011;5520;45.752;4.874;2023-03-08T11:17:42;4.83;;;1.97;;
10934;SDS011;5520;45.752;4.874;2023-03-08T11:20:14;2.80;;;1.50;;
10934;SDS011;5520;45.752;4.874;2023-03-08T11:22:52;3.23;;;1.63;;
10934;SDS011;5520;45.752;4.874;2023-03-08T11:25:33;1.67;;;1.57;;
10934;SDS011;5520;45.752;4.874;2023-03-08T11:28:08;3.23;;;1.60;;
10934;SDS011;5520;45.752;4.874;2023-03-08T11:30:41;1.77;;;1.60;;
10934;SDS011;5520;45.752;4.874;2023-03-08T11:35:58;3.63;;;1.50;;
10934;SDS011;5520;45.752;4.874;2023-03-08T11:38:30;2.40;;;1.50;;
10934;SDS011;5520;45.752;4.874;2023-03-08T11:41:00;1.93;;;1.77;;
10934;SDS011;5520;45.752;4.874;2023-03-08T11:43:35;2.00;;;1.43;;
10934;SDS011;5520;45.752;4.874;2023-03-08T11:46:08;1.40;;;1.30;;
10934;SDS011;5520;45.752;4.874;2023-03-08T11:48:49;2.33;;;1.63;;
10934;SDS011;5520;45.752;4.874;2023-03-08T11:51:20;3.73;;;1.83;;
10934;SDS011;5520;45.752;4.874;2023-03-08T11:53:52;2.00;;;1.50;;
10934;SDS011;5520;45.752;4.874;2023-03-08T11:56:29;1.60;;;1.50;;
10934;SDS011;5520;45.752;4.874;2023-03-08T11:59:01;4.77;;;1.60;;
10934;SDS011;5520;45.752;4.874;2023-03-08T12:01:30;2.43;;;1.93;;
10934;SDS011;5520;45.752;4.874;2023-03-08T12:04:03;2.73;;;1.30;;
10934;SDS011;5520;45.752;4.874;2023-03-08T12:06:34;2.87;;;1.60;;
10934;SDS011;5520;45.752;4.874;2023-03-08T12:09:05;2.30;;;1.60;;
10934;SDS011;5520;45.752;4.874;2023-03-08T12:11:37;1.60;;;1.37;;
10934;SDS011;5520;45.752;4.874;2023-03-08T12:14:09;2.23;;;1.60;;
10934;SDS011;5520;45.752;4.874;2023-03-08T12:16:44;4.73;;;1.40;;
10934;SDS011;5520;45.752;4.874;2023-03-08T12:19:17;1.40;;;1.30;;
10934;SDS011;5520;45.752;4.874;2023-03-08T12:21:47;3.20;;;1.70;;
10934;SDS011;5520;45.752;4.874;2023-03-08T12:24:22;1.77;;;1.30;;
10934;SDS011;5520;45.752;4.874;2023-03-08T12:26:51;2.10;;;1.40;;
10934;SDS011;5520;45.752;4.874;2023-03-08T12:29:24;4.07;;;1.50;;
10934;SDS011;5520;45.752;4.874;2023-03-08T12:31:53;1.73;;;1.50;;
10934;SDS011;5520;45.752;4.874;2023-03-08T12:34:24;3.33;;;1.33;;
10934;SDS011;5520;45.752;4.874;2023-03-08T12:36:53;2.80;;;1.23;;
10934;SDS011;5520;45.752;4.874;2023-03-08T12:39:27;1.60;;;1.20;;
10934;SDS011;5520;45.752;4.874;2023-03-08T12:41:59;2.03;;;1.30;;
10934;SDS011;5520;45.752;4.874;2023-03-08T12:44:28;1.23;;;1.13;;
10934;SDS011;5520;45.752;4.874;2023-03-08T12:46:58;1.50;;;1.40;;
10934;SDS011;5520;45.752;4.874;2023-03-08T12:49:31;1.53;;;1.40;;
10934;SDS011;5520;45.752;4.874;2023-03-08T12:52:01;2.40;;;1.33;;
10934;SDS011;5520;45.752;4.874;2023-03-08T12:54:31;1.93;;;1.70;;
10934;SDS011;5520;45.752;4.874;2023-03-08T12:57:01;2.77;;;1.20;;
10934;SDS011;5520;45.752;4.874;2023-03-08T12:59:33;1.83;;;1.67;;
10934;SDS011;5520;45.752;4.874;2023-03-08T13:02:18;1.80;;;1.43;;
10934;SDS011;5520;45.752;4.874;2023-03-08T13:04:48;1.47;;;1.37;;
10934;SDS011;5520;45.752;4.874;2023-03-08T13:07:21;1.33;;;1.23;;
10934;SDS011;5520;45.752;4.874;2023-03-08T13:09:55;4.37;;;1.77;;
10934;SDS011;5520;45.752;4.874;2023-03-08T13:12:29;4.13;;;1.50;;
10934;SDS011;5520;45.752;4.874;2023-03-08T13:17:47;1.20;;;1.17;;
10934;SDS011;5520;45.752;4.874;2023-03-08T13:20:16;1.40;;;1.30;;
10934;SDS011;5520;45.752;4.874;2023-03-08T13:22:48;4.07;;;2.17;;
10934;SDS011;5520;45.752;4.874;2023-03-08T13:25:21;2.03;;;1.60;;
10934;SDS011;5520;45.752;4.874;2023-03-08T13:27:51;5.17;;;1.40;;
10934;SDS011;5520;45.752;4.874;2023-03-08T13:30:22;3.87;;;1.50;;
10934;SDS011;5520;45.752;4.874;2023-03-08T13:32:50;3.97;;;1.50;;
10934;SDS011;5520;45.752;4.874;2023-03-08T13:35:22;1.50;;;1.20;;
10934;SDS011;5520;45.752;4.874;2023-03-08T13:37:50;3.53;;;1.73;;
10934;SDS011;5520;45.752;4.874;2023-03-08T13:40:19;1.47;;;1.13;;
10934;SDS011;5520;45.752;4.874;2023-03-08T13:42:55;11.90;;;2.30;;
10934;SDS011;5520;45.752;4.874;2023-03-08T13:45:24;7.47;;;1.70;;
10934;SDS011;5520;45.752;4.874;2023-03-08T13:47:53;7.77;;;2.60;;
10934;SDS011;5520;45.752;4.874;2023-03-08T13:50:28;3.90;;;1.67;;
10934;SDS011;5520;45.752;4.874;2023-03-08T13:52:56;2.10;;;1.50;;
10934;SDS011;5520;45.752;4.874;2023-03-08T13:55:26;1.73;;;1.63;;
10934;SDS011;5520;45.752;4.874;2023-03-08T13:57:58;1.90;;;1.80;;
10934;SDS011;5520;45.752;4.874;2023-03-08T14:00:27;1.60;;;1.23;;
10934;SDS011;5520;45.752;4.874;2023-03-08T14:02:56;4.30;;;1.73;;
10934;SDS011;5520;45.752;4.874;2023-03-08T14:05:25;4.20;;;1.47;;
10934;SDS011;5520;45.752;4.874;2023-03-08T14:07:57;5.00;;;1.80;;
10934;SDS011;5520;45.752;4.874;2023-03-08T14:10:28;2.03;;;1.83;;
10934;SDS011;5520;45.752;4.874;2023-03-08T14:12:59;2.83;;;1.67;;
10934;SDS011;5520;45.752;4.874;2023-03-08T14:15:27;1.50;;;1.27;;
10934;SDS011;5520;45.752;4.874;2023-03-08T14:17:57;21.03;;;3.13;;
10934;SDS011;5520;45.752;4.874;2023-03-08T14:20:26;18.67;;;3.63;;
10934;SDS011;5520;45.752;4.874;2023-03-08T14:22:54;5.07;;;2.20;;
10934;SDS011;5520;45.752;4.874;2023-03-08T14:25:24;2.20;;;1.73;;
10934;SDS011;5520;45.752;4.874;2023-03-08T14:27:52;4.20;;;2.00;;
10934;SDS011;5520;45.752;4.874;2023-03-08T14:30:22;3.27;;;2.00;;
10934;SDS011;5520;45.752;4.874;2023-03-08T14:32:55;7.33;;;2.40;;
10934;SDS011;5520;45.752;4.874;2023-03-08T14:35:24;11.83;;;3.40;;
10934;SDS011;5520;45.752;4.874;2023-03-08T14:37:52;21.97;;;4.27;;
10934;SDS011;5520;45.752;4.874;2023-03-08T14:40:23;18.57;;;5.13;;
10934;SDS011;5520;45.752;4.874;2023-03-08T14:42:52;2.23;;;2.00;;
10934;SDS011;5520;45.752;4.874;2023-03-08T14:45:23;2.63;;;2.43;;
10934;SDS011;5520;45.752;4.874;2023-03-08T14:47:53;3.80;;;2.27;;
10934;SDS011;5520;45.752;4.874;2023-03-08T14:50:24;2.73;;;2.00;;
10934;SDS011;5520;45.752;4.874;2023-03-08T14:52:53;3.00;;;2.37;;
10934;SDS011;5520;45.752;4.874;2023-03-08T14:55:22;2.93;;;2.37;;
10934;SDS011;5520;45.752;4.874;2023-03-08T14:57:51;4.50;;;2.13;;
10934;SDS011;5520;45.752;4.874;2023-03-08T15:00:24;3.37;;;2.30;;
10934;SDS011;5520;45.752;4.874;2023-03-08T15:02:53;4.53;;;2.20;;
10934;SDS011;5520;45.752;4.874;2023-03-08T15:05:21;2.47;;;2.27;;
10934;SDS011;5520;45.752;4.874;2023-03-08T15:07:55;2.83;;;2.20;;
10934;SDS011;5520;45.752;4.874;2023-03-08T15:10:26;4.57;;;2.10;;